Terminal Aerodrome Forecast
Issued by NWS Lake Charles, LA

Home | Current Version | Previous Version | Text Only | Print | Product List | Glossary On
Versions: 1 2 3 4 5 6 7 8 9 10 11 12 13 14 15 16 17 18 19
115
FTUS44 KLCH 010530
TAFAEX
TAF
KAEX 010530Z 0106/0206 15008KT P6SM OVC012
     FM010800 16008KT 4SM BR VCSH OVC009
     FM011000 VRB04KT 5SM -SHRA SCT007 OVC020
     FM011700 15008KT P6SM VCSH SCT020 BKN035 PROB30 0117/0123 3SM
      SHRA BKN020
     FM020100 14006KT P6SM VCSH BKN015=

USA.gov is the U.S. government's official web portal to all federal, state and local government web resources and services.